sensor_id;sensor_type;location;lat;lon;timestamp;temperature;humidity
3542;DHT22;1785;47.388;8.538;2023-05-10T00:02:00;15.10;99.90
3542;DHT22;1785;47.388;8.538;2023-05-10T00:04:26;14.90;99.90
3542;DHT22;1785;47.388;8.538;2023-05-10T00:06:53;14.60;99.90
3542;DHT22;1785;47.388;8.538;2023-05-10T00:09:19;14.70;99.90
3542;DHT22;1785;47.388;8.538;2023-05-10T00:11:45;14.80;99.90
3542;DHT22;1785;47.388;8.538;2023-05-10T00:14:11;14.60;99.90
3542;DHT22;1785;47.388;8.538;2023-05-10T00:16:38;14.60;99.90
3542;DHT22;1785;47.388;8.538;2023-05-10T00:19:04;14.80;99.90
3542;DHT22;1785;47.388;8.538;2023-05-10T00:21:30;14.80;99.90
3542;DHT22;1785;47.388;8.538;2023-05-10T00:23:57;15.10;99.90
3542;DHT22;1785;47.388;8.538;2023-05-10T00:26:23;14.90;99.90
3542;DHT22;1785;47.388;8.538;2023-05-10T00:28:49;14.90;99.90
3542;DHT22;1785;47.388;8.538;2023-05-10T00:31:16;15.00;99.90
3542;DHT22;1785;47.388;8.538;2023-05-10T00:33:42;15.20;99.90
3542;DHT22;1785;47.388;8.538;2023-05-10T00:36:08;15.10;99.90
3542;DHT22;1785;47.388;8.538;2023-05-10T00:38:34;15.30;99.90
3542;DHT22;1785;47.388;8.538;2023-05-10T00:41:00;15.60;99.90
3542;DHT22;1785;47.388;8.538;2023-05-10T00:43:26;15.60;99.90
3542;DHT22;1785;47.388;8.538;2023-05-10T00:45:53;15.70;99.90
3542;DHT22;1785;47.388;8.538;2023-05-10T00:48:19;15.70;99.90
3542;DHT22;1785;47.388;8.538;2023-05-10T00:50:47;15.70;99.90
3542;DHT22;1785;47.388;8.538;2023-05-10T00:53:14;15.90;99.90
3542;DHT22;1785;47.388;8.538;2023-05-10T00:55:40;16.00;99.90
3542;DHT22;1785;47.388;8.538;2023-05-10T00:58:07;16.10;99.90
3542;DHT22;1785;47.388;8.538;2023-05-10T01:00:33;16.10;99.90
3542;DHT22;1785;47.388;8.538;2023-05-10T01:02:59;16.10;99.90
3542;DHT22;1785;47.388;8.538;2023-05-10T01:05:26;16.10;99.90
3542;DHT22;1785;47.388;8.538;2023-05-10T01:07:52;16.00;99.90
3542;DHT22;1785;47.388;8.538;2023-05-10T01:10:19;16.00;99.90
3542;DHT22;1785;47.388;8.538;2023-05-10T01:12:46;16.10;99.90
3542;DHT22;1785;47.388;8.538;2023-05-10T01:15:14;16.30;99.90
3542;DHT22;1785;47.388;8.538;2023-05-10T01:17:43;16.40;99.90
3542;DHT22;1785;47.388;8.538;2023-05-10T01:20:11;16.30;99.90
3542;DHT22;1785;47.388;8.538;2023-05-10T01:22:55;16.10;99.90
3542;DHT22;1785;47.388;8.538;2023-05-10T01:28:45;16.10;99.90
3542;DHT22;1785;47.388;8.538;2023-05-10T01:31:22;16.10;99.90
3542;DHT22;1785;47.388;8.538;2023-05-10T01:33:56;16.00;99.90
3542;DHT22;1785;47.388;8.538;2023-05-10T01:36:30;15.90;99.90
3542;DHT22;1785;47.388;8.538;2023-05-10T01:39:01;16.10;99.90
3542;DHT22;1785;47.388;8.538;2023-05-10T01:41:36;15.90;99.90
3542;DHT22;1785;47.388;8.538;2023-05-10T01:44:11;15.70;99.90
3542;DHT22;1785;47.388;8.538;2023-05-10T01:46:40;15.70;99.90
3542;DHT22;1785;47.388;8.538;2023-05-10T01:49:09;15.60;99.90
3542;DHT22;1785;47.388;8.538;2023-05-10T01:51:39;15.80;99.90
3542;DHT22;1785;47.388;8.538;2023-05-10T01:54:08;15.70;99.90
3542;DHT22;1785;47.388;8.538;2023-05-10T01:56:36;15.80;99.90
3542;DHT22;1785;47.388;8.538;2023-05-10T01:59:06;15.90;99.90
3542;DHT22;1785;47.388;8.538;2023-05-10T02:01:37;15.90;99.90
3542;DHT22;1785;47.388;8.538;2023-05-10T02:04:04;15.30;99.90
3542;DHT22;1785;47.388;8.538;2023-05-10T02:06:32;15.40;99.90
3542;DHT22;1785;47.388;8.538;2023-05-10T02:09:00;15.40;99.90
3542;DHT22;1785;47.388;8.538;2023-05-10T02:11:27;15.30;99.90
3542;DHT22;1785;47.388;8.538;2023-05-10T02:13:55;15.20;99.90
3542;DHT22;1785;47.388;8.538;2023-05-10T02:16:24;15.20;99.90
3542;DHT22;1785;47.388;8.538;2023-05-10T02:18:52;15.40;99.90
3542;DHT22;1785;47.388;8.538;2023-05-10T02:21:19;15.60;99.90
3542;DHT22;1785;47.388;8.538;2023-05-10T02:23:48;15.70;99.90
3542;DHT22;1785;47.388;8.538;2023-05-10T02:26:17;15.90;99.90
3542;DHT22;1785;47.388;8.538;2023-05-10T02:28:43;15.90;99.90
3542;DHT22;1785;47.388;8.538;2023-05-10T02:31:10;15.90;99.90
3542;DHT22;1785;47.388;8.538;2023-05-10T02:33:38;16.00;99.90
3542;DHT22;1785;47.388;8.538;2023-05-10T02:36:07;16.10;99.90
3542;DHT22;1785;47.388;8.538;2023-05-10T02:38:34;15.70;99.90
3542;DHT22;1785;47.388;8.538;2023-05-10T02:41:04;15.90;99.90
3542;DHT22;1785;47.388;8.538;2023-05-10T02:43:32;16.10;99.90
3542;DHT22;1785;47.388;8.538;2023-05-10T02:45:59;16.10;99.90
3542;DHT22;1785;47.388;8.538;2023-05-10T02:48:25;16.20;99.90
3542;DHT22;1785;47.388;8.538;2023-05-10T02:50:52;16.20;99.90
3542;DHT22;1785;47.388;8.538;2023-05-10T02:53:23;16.30;99.90
3542;DHT22;1785;47.388;8.538;2023-05-10T02:55:51;16.20;99.90
3542;DHT22;1785;47.388;8.538;2023-05-10T02:58:18;16.20;99.90
3542;DHT22;1785;47.388;8.538;2023-05-10T03:00:45;16.10;99.90
3542;DHT22;1785;47.388;8.538;2023-05-10T03:03:11;15.70;99.90
3542;DHT22;1785;47.388;8.538;2023-05-10T03:05:37;15.30;99.90
3542;DHT22;1785;47.388;8.538;2023-05-10T03:08:04;15.20;99.90
3542;DHT22;1785;47.388;8.538;2023-05-10T03:10:32;15.40;99.90
3542;DHT22;1785;47.388;8.538;2023-05-10T03:13:10;15.50;99.90
3542;DHT22;1785;47.388;8.538;2023-05-10T03:15:47;15.40;99.90
3542;DHT22;1785;47.388;8.538;2023-05-10T03:18:22;15.40;99.90
3542;DHT22;1785;47.388;8.538;2023-05-10T03:20:51;15.30;99.90
3542;DHT22;1785;47.388;8.538;2023-05-10T03:23:24;15.30;99.90
3542;DHT22;1785;47.388;8.538;2023-05-10T03:25:52;15.50;99.90
3542;DHT22;1785;47.388;8.538;2023-05-10T03:28:19;15.60;99.90
3542;DHT22;1785;47.388;8.538;2023-05-10T03:30:47;15.70;99.90
3542;DHT22;1785;47.388;8.538;2023-05-10T03:33:13;15.90;99.90
3542;DHT22;1785;47.388;8.538;2023-05-10T03:35:39;16.00;99.90
3542;DHT22;1785;47.388;8.538;2023-05-10T03:38:05;16.10;99.90
3542;DHT22;1785;47.388;8.538;2023-05-10T03:40:31;16.10;99.90
3542;DHT22;1785;47.388;8.538;2023-05-10T03:42:57;16.10;99.90
3542;DHT22;1785;47.388;8.538;2023-05-10T03:45:24;16.10;99.90
3542;DHT22;1785;47.388;8.538;2023-05-10T03:47:50;16.20;99.90
3542;DHT22;1785;47.388;8.538;2023-05-10T03:50:16;16.20;99.90
3542;DHT22;1785;47.388;8.538;2023-05-10T03:52:43;16.20;99.90
3542;DHT22;1785;47.388;8.538;2023-05-10T03:55:10;16.30;99.90
3542;DHT22;1785;47.388;8.538;2023-05-10T03:57:36;16.40;99.90
3542;DHT22;1785;47.388;8.538;2023-05-10T04:00:03;16.40;99.90
3542;DHT22;1785;47.388;8.538;2023-05-10T04:02:29;16.30;99.90
3542;DHT22;1785;47.388;8.538;2023-05-10T04:04:56;16.20;99.90
3542;DHT22;1785;47.388;8.538;2023-05-10T04:07:22;16.00;99.90
3542;DHT22;1785;47.388;8.538;2023-05-10T04:09:48;15.90;99.90
3542;DHT22;1785;47.388;8.538;2023-05-10T04:12:14;15.90;99.90
3542;DHT22;1785;47.388;8.538;2023-05-10T04:14:40;15.70;99.90
3542;DHT22;1785;47.388;8.538;2023-05-10T04:17:06;15.70;99.90
3542;DHT22;1785;47.388;8.538;2023-05-10T04:19:33;15.60;99.90
3542;DHT22;1785;47.388;8.538;2023-05-10T04:21:59;15.20;99.90
3542;DHT22;1785;47.388;8.538;2023-05-10T04:24:25;15.20;99.90
3542;DHT22;1785;47.388;8.538;2023-05-10T04:26:52;15.50;99.90
3542;DHT22;1785;47.388;8.538;2023-05-10T04:29:19;15.70;99.90
3542;DHT22;1785;47.388;8.538;2023-05-10T04:31:46;15.80;99.90
3542;DHT22;1785;47.388;8.538;2023-05-10T04:34:12;15.80;99.90
3542;DHT22;1785;47.388;8.538;2023-05-10T04:36:38;15.80;99.90
3542;DHT22;1785;47.388;8.538;2023-05-10T04:39:05;15.40;99.90
3542;DHT22;1785;47.388;8.538;2023-05-10T04:41:31;15.30;99.90
3542;DHT22;1785;47.388;8.538;2023-05-10T04:43:57;15.50;99.90
3542;DHT22;1785;47.388;8.538;2023-05-10T04:46:23;15.50;99.90
3542;DHT22;1785;47.388;8.538;2023-05-10T04:48:49;15.60;99.90
3542;DHT22;1785;47.388;8.538;2023-05-10T04:51:15;15.30;99.90
3542;DHT22;1785;47.388;8.538;2023-05-10T04:53:41;15.00;99.90
3542;DHT22;1785;47.388;8.538;2023-05-10T04:56:08;15.00;99.90
3542;DHT22;1785;47.388;8.538;2023-05-10T04:58:34;15.20;99.90
3542;DHT22;1785;47.388;8.538;2023-05-10T05:01:05;15.30;99.90
3542;DHT22;1785;47.388;8.538;2023-05-10T05:03:32;15.60;99.90
3542;DHT22;1785;47.388;8.538;2023-05-10T05:05:59;15.60;99.90
3542;DHT22;1785;47.388;8.538;2023-05-10T05:08:25;15.50;99.90
3542;DHT22;1785;47.388;8.538;2023-05-10T05:10:51;15.50;99.90
3542;DHT22;1785;47.388;8.538;2023-05-10T05:13:18;15.70;99.90
3542;DHT22;1785;47.388;8.538;2023-05-10T05:15:44;15.70;99.90
3542;DHT22;1785;47.388;8.538;2023-05-10T05:18:10;15.80;99.90
3542;DHT22;1785;47.388;8.538;2023-05-10T05:20:36;15.80;99.90
3542;DHT22;1785;47.388;8.538;2023-05-10T05:23:02;15.60;99.90
3542;DHT22;1785;47.388;8.538;2023-05-10T05:25:28;15.70;99.90
3542;DHT22;1785;47.388;8.538;2023-05-10T05:27:54;15.80;99.90
3542;DHT22;1785;47.388;8.538;2023-05-10T05:30:21;15.70;99.90
3542;DHT22;1785;47.388;8.538;2023-05-10T05:32:47;15.80;99.90
3542;DHT22;1785;47.388;8.538;2023-05-10T05:35:13;15.90;99.90
3542;DHT22;1785;47.388;8.538;2023-05-10T05:37:39;15.80;99.90
3542;DHT22;1785;47.388;8.538;2023-05-10T05:40:07;15.90;99.90
3542;DHT22;1785;47.388;8.538;2023-05-10T05:42:33;15.80;99.90
3542;DHT22;1785;47.388;8.538;2023-05-10T05:44:59;15.70;99.90
3542;DHT22;1785;47.388;8.538;2023-05-10T05:47:26;15.40;99.90
3542;DHT22;1785;47.388;8.538;2023-05-10T05:49:52;15.40;99.90
3542;DHT22;1785;47.388;8.538;2023-05-10T05:52:19;15.50;99.90
3542;DHT22;1785;47.388;8.538;2023-05-10T05:54:44;15.50;99.90
3542;DHT22;1785;47.388;8.538;2023-05-10T05:57:11;15.40;99.90
3542;DHT22;1785;47.388;8.538;2023-05-10T05:59:40;15.30;99.90
3542;DHT22;1785;47.388;8.538;2023-05-10T06:02:09;15.30;99.90
3542;DHT22;1785;47.388;8.538;2023-05-10T06:04:36;15.10;99.90
3542;DHT22;1785;47.388;8.538;2023-05-10T06:07:02;14.80;99.90
3542;DHT22;1785;47.388;8.538;2023-05-10T06:09:28;14.50;99.90
3542;DHT22;1785;47.388;8.538;2023-05-10T06:11:54;14.60;99.90
3542;DHT22;1785;47.388;8.538;2023-05-10T06:14:21;14.60;99.90
3542;DHT22;1785;47.388;8.538;2023-05-10T06:16:47;14.40;99.90
3542;DHT22;1785;47.388;8.538;2023-05-10T06:19:13;14.50;99.90
3542;DHT22;1785;47.388;8.538;2023-05-10T06:21:40;14.50;99.90
3542;DHT22;1785;47.388;8.538;2023-05-10T06:24:06;14.70;99.90
3542;DHT22;1785;47.388;8.538;2023-05-10T06:26:34;14.80;99.90
3542;DHT22;1785;47.388;8.538;2023-05-10T06:29:02;14.70;99.90
3542;DHT22;1785;47.388;8.538;2023-05-10T06:31:28;14.70;99.90
3542;DHT22;1785;47.388;8.538;2023-05-10T06:33:54;14.70;99.90
3542;DHT22;1785;47.388;8.538;2023-05-10T06:36:20;14.50;99.90
3542;DHT22;1785;47.388;8.538;2023-05-10T06:38:48;14.70;99.90
3542;DHT22;1785;47.388;8.538;2023-05-10T06:41:14;14.80;99.90
3542;DHT22;1785;47.388;8.538;2023-05-10T06:43:40;14.60;99.90
3542;DHT22;1785;47.388;8.538;2023-05-10T06:46:07;14.50;99.90
3542;DHT22;1785;47.388;8.538;2023-05-10T06:48:34;14.70;99.90
3542;DHT22;1785;47.388;8.538;2023-05-10T06:51:00;14.80;99.90
3542;DHT22;1785;47.388;8.538;2023-05-10T06:53:26;14.70;99.90
3542;DHT22;1785;47.388;8.538;2023-05-10T06:55:53;14.50;99.90
3542;DHT22;1785;47.388;8.538;2023-05-10T06:58:19;14.20;99.90
3542;DHT22;1785;47.388;8.538;2023-05-10T07:00:45;14.10;99.90
3542;DHT22;1785;47.388;8.538;2023-05-10T07:03:13;14.00;99.90
3542;DHT22;1785;47.388;8.538;2023-05-10T07:05:39;14.10;99.90
3542;DHT22;1785;47.388;8.538;2023-05-10T07:08:06;14.20;99.90
3542;DHT22;1785;47.388;8.538;2023-05-10T07:10:33;14.30;99.90
3542;DHT22;1785;47.388;8.538;2023-05-10T07:13:00;14.60;99.90
3542;DHT22;1785;47.388;8.538;2023-05-10T07:15:26;14.70;99.90
3542;DHT22;1785;47.388;8.538;2023-05-10T07:17:53;14.70;99.90
3542;DHT22;1785;47.388;8.538;2023-05-10T07:20:19;14.60;99.90
3542;DHT22;1785;47.388;8.538;2023-05-10T07:22:45;15.00;99.90
3542;DHT22;1785;47.388;8.538;2023-05-10T07:25:11;14.70;99.90
3542;DHT22;1785;47.388;8.538;2023-05-10T07:27:37;14.50;99.90
3542;DHT22;1785;47.388;8.538;2023-05-10T07:30:06;14.60;99.90
3542;DHT22;1785;47.388;8.538;2023-05-10T07:32:32;14.60;99.90
3542;DHT22;1785;47.388;8.538;2023-05-10T07:34:59;14.60;99.90
3542;DHT22;1785;47.388;8.538;2023-05-10T07:37:26;14.40;99.90
3542;DHT22;1785;47.388;8.538;2023-05-10T07:39:53;14.40;99.90
3542;DHT22;1785;47.388;8.538;2023-05-10T07:42:19;14.30;99.90
3542;DHT22;1785;47.388;8.538;2023-05-10T07:44:45;14.40;99.90
3542;DHT22;1785;47.388;8.538;2023-05-10T07:47:11;14.30;99.90
3542;DHT22;1785;47.388;8.538;2023-05-10T07:49:38;14.30;99.90
3542;DHT22;1785;47.388;8.538;2023-05-10T07:52:04;14.10;99.90
3542;DHT22;1785;47.388;8.538;2023-05-10T07:54:30;14.00;99.90
3542;DHT22;1785;47.388;8.538;2023-05-10T07:56:56;14.00;99.90
3542;DHT22;1785;47.388;8.538;2023-05-10T07:59:22;13.90;99.90
3542;DHT22;1785;47.388;8.538;2023-05-10T08:01:48;14.10;99.90
3542;DHT22;1785;47.388;8.538;2023-05-10T08:04:15;14.10;99.90
3542;DHT22;1785;47.388;8.538;2023-05-10T08:06:41;14.30;99.90
3542;DHT22;1785;47.388;8.538;2023-05-10T08:09:08;14.40;99.90
3542;DHT22;1785;47.388;8.538;2023-05-10T08:11:34;14.30;99.90
3542;DHT22;1785;47.388;8.538;2023-05-10T08:14:00;14.20;99.90
3542;DHT22;1785;47.388;8.538;2023-05-10T08:16:26;14.20;99.90
3542;DHT22;1785;47.388;8.538;2023-05-10T08:18:52;14.10;99.90
3542;DHT22;1785;47.388;8.538;2023-05-10T08:21:21;14.40;99.90
3542;DHT22;1785;47.388;8.538;2023-05-10T08:23:47;14.30;99.90
3542;DHT22;1785;47.388;8.538;2023-05-10T08:26:14;14.00;99.90
3542;DHT22;1785;47.388;8.538;2023-05-10T08:28:40;14.20;99.90
3542;DHT22;1785;47.388;8.538;2023-05-10T08:31:06;14.50;99.90
3542;DHT22;1785;47.388;8.538;2023-05-10T08:33:32;14.70;99.90
3542;DHT22;1785;47.388;8.538;2023-05-10T08:35:58;14.60;99.90
3542;DHT22;1785;47.388;8.538;2023-05-10T08:38:25;14.80;99.90
3542;DHT22;1785;47.388;8.538;2023-05-10T08:40:53;14.50;99.90
3542;DHT22;1785;47.388;8.538;2023-05-10T08:43:23;14.70;99.90
3542;DHT22;1785;47.388;8.538;2023-05-10T08:45:53;14.70;99.90
3542;DHT22;1785;47.388;8.538;2023-05-10T08:48:23;14.50;99.90
3542;DHT22;1785;47.388;8.538;2023-05-10T08:50:53;14.70;99.90
3542;DHT22;1785;47.388;8.538;2023-05-10T08:53:21;14.70;99.90
3542;DHT22;1785;47.388;8.538;2023-05-10T08:55:50;14.90;99.90
3542;DHT22;1785;47.388;8.538;2023-05-10T08:58:17;14.80;99.90
3542;DHT22;1785;47.388;8.538;2023-05-10T09:00:45;14.70;99.90
3542;DHT22;1785;47.388;8.538;2023-05-10T09:03:12;14.90;99.90
3542;DHT22;1785;47.388;8.538;2023-05-10T09:05:38;15.10;99.90
3542;DHT22;1785;47.388;8.538;2023-05-10T09:08:05;15.40;99.90
3542;DHT22;1785;47.388;8.538;2023-05-10T09:10:32;15.20;99.90
3542;DHT22;1785;47.388;8.538;2023-05-10T09:12:59;14.90;99.90
3542;DHT22;1785;47.388;8.538;2023-05-10T09:15:25;14.70;99.90
3542;DHT22;1785;47.388;8.538;2023-05-10T09:17:51;14.50;99.90
3542;DHT22;1785;47.388;8.538;2023-05-10T09:20:17;14.80;99.90
3542;DHT22;1785;47.388;8.538;2023-05-10T09:22:43;14.70;99.90
3542;DHT22;1785;47.388;8.538;2023-05-10T09:25:11;14.70;99.90
3542;DHT22;1785;47.388;8.538;2023-05-10T09:27:39;14.60;99.90
3542;DHT22;1785;47.388;8.538;2023-05-10T09:30:07;14.70;99.90
3542;DHT22;1785;47.388;8.538;2023-05-10T09:32:37;15.00;99.90
3542;DHT22;1785;47.388;8.538;2023-05-10T09:35:10;15.10;99.90
3542;DHT22;1785;47.388;8.538;2023-05-10T09:37:39;15.30;99.90
3542;DHT22;1785;47.388;8.538;2023-05-10T09:40:08;15.10;99.90
3542;DHT22;1785;47.388;8.538;2023-05-10T09:42:36;15.10;99.90
3542;DHT22;1785;47.388;8.538;2023-05-10T09:45:04;15.30;99.90
3542;DHT22;1785;47.388;8.538;2023-05-10T09:47:32;15.00;99.90
3542;DHT22;1785;47.388;8.538;2023-05-10T09:49:59;14.90;99.90
3542;DHT22;1785;47.388;8.538;2023-05-10T09:52:29;15.00;99.90
3542;DHT22;1785;47.388;8.538;2023-05-10T09:54:55;14.90;99.90
3542;DHT22;1785;47.388;8.538;2023-05-10T09:57:22;14.80;99.90
3542;DHT22;1785;47.388;8.538;2023-05-10T09:59:49;14.90;99.90
3542;DHT22;1785;47.388;8.538;2023-05-10T10:02:16;14.90;99.90
3542;DHT22;1785;47.388;8.538;2023-05-10T10:04:43;14.50;99.90
3542;DHT22;1785;47.388;8.538;2023-05-10T10:07:09;14.40;99.90
3542;DHT22;1785;47.388;8.538;2023-05-10T10:09:35;14.60;99.90
3542;DHT22;1785;47.388;8.538;2023-05-10T10:12:01;14.90;99.90
3542;DHT22;1785;47.388;8.538;2023-05-10T10:14:28;15.00;99.90
3542;DHT22;1785;47.388;8.538;2023-05-10T10:16:55;14.80;99.90
3542;DHT22;1785;47.388;8.538;2023-05-10T10:19:22;14.70;99.90
3542;DHT22;1785;47.388;8.538;2023-05-10T10:21:49;14.80;99.90
3542;DHT22;1785;47.388;8.538;2023-05-10T10:24:16;15.10;99.90
3542;DHT22;1785;47.388;8.538;2023-05-10T10:26:43;15.20;99.90
3542;DHT22;1785;47.388;8.538;2023-05-10T10:29:21;15.40;99.90
3542;DHT22;1785;47.388;8.538;2023-05-10T10:31:55;15.40;99.90
3542;DHT22;1785;47.388;8.538;2023-05-10T10:34:26;15.20;99.90
3542;DHT22;1785;47.388;8.538;2023-05-10T10:36:55;15.00;99.90
3542;DHT22;1785;47.388;8.538;2023-05-10T10:39:22;15.00;99.90
3542;DHT22;1785;47.388;8.538;2023-05-10T10:41:51;15.30;99.90
3542;DHT22;1785;47.388;8.538;2023-05-10T10:44:35;15.40;99.90
3542;DHT22;1785;47.388;8.538;2023-05-10T10:47:11;15.40;99.90
3542;DHT22;1785;47.388;8.538;2023-05-10T10:49:50;15.80;99.90
3542;DHT22;1785;47.388;8.538;2023-05-10T10:52:25;15.80;99.90
3542;DHT22;1785;47.388;8.538;2023-05-10T10:54:59;15.70;99.90
3542;DHT22;1785;47.388;8.538;2023-05-10T10:57:26;15.40;99.90
3542;DHT22;1785;47.388;8.538;2023-05-10T11:00:23;15.20;99.90
3542;DHT22;1785;47.388;8.538;2023-05-10T11:02:51;15.20;99.90
3542;DHT22;1785;47.388;8.538;2023-05-10T11:05:25;15.30;99.90
3542;DHT22;1785;47.388;8.538;2023-05-10T11:07:53;15.40;99.90
3542;DHT22;1785;47.388;8.538;2023-05-10T11:10:19;15.40;99.90
3542;DHT22;1785;47.388;8.538;2023-05-10T11:12:52;15.60;99.90
3542;DHT22;1785;47.388;8.538;2023-05-10T11:15:18;15.90;99.90
3542;DHT22;1785;47.388;8.538;2023-05-10T11:17:45;15.80;99.90
3542;DHT22;1785;47.388;8.538;2023-05-10T11:20:14;15.90;99.90
3542;DHT22;1785;47.388;8.538;2023-05-10T11:22:50;15.80;99.90
3542;DHT22;1785;47.388;8.538;2023-05-10T11:25:17;15.80;99.90
3542;DHT22;1785;47.388;8.538;2023-05-10T11:27:44;16.10;99.90
3542;DHT22;1785;47.388;8.538;2023-05-10T11:30:12;16.00;99.90
3542;DHT22;1785;47.388;8.538;2023-05-10T11:32:38;16.10;99.90
3542;DHT22;1785;47.388;8.538;2023-05-10T11:35:07;16.20;99.90
3542;DHT22;1785;47.388;8.538;2023-05-10T11:37:33;16.40;99.90
3542;DHT22;1785;47.388;8.538;2023-05-10T11:40:00;16.80;99.90
3542;DHT22;1785;47.388;8.538;2023-05-10T11:42:28;17.10;99.90
3542;DHT22;1785;47.388;8.538;2023-05-10T11:44:54;17.30;99.90
3542;DHT22;1785;47.388;8.538;2023-05-10T11:47:20;17.40;99.90
3542;DHT22;1785;47.388;8.538;2023-05-10T11:49:48;16.90;99.90
3542;DHT22;1785;47.388;8.538;2023-05-10T11:52:15;16.60;99.90
3542;DHT22;1785;47.388;8.538;2023-05-10T11:54:46;16.40;99.90
3542;DHT22;1785;47.388;8.538;2023-05-10T11:57:18;16.30;99.90
3542;DHT22;1785;47.388;8.538;2023-05-10T11:59:45;16.30;99.90
3542;DHT22;1785;47.388;8.538;2023-05-10T12:02:11;16.40;99.90
3542;DHT22;1785;47.388;8.538;2023-05-10T12:04:38;16.60;99.90
3542;DHT22;1785;47.388;8.538;2023-05-10T12:07:04;16.80;99.90
3542;DHT22;1785;47.388;8.538;2023-05-10T12:09:30;17.00;99.90
3542;DHT22;1785;47.388;8.538;2023-05-10T12:11:56;17.00;99.90
3542;DHT22;1785;47.388;8.538;2023-05-10T12:14:23;17.10;99.90
3542;DHT22;1785;47.388;8.538;2023-05-10T12:16:50;17.20;99.90
3542;DHT22;1785;47.388;8.538;2023-05-10T12:19:19;17.30;99.90
3542;DHT22;1785;47.388;8.538;2023-05-10T12:21:45;17.20;99.90
3542;DHT22;1785;47.388;8.538;2023-05-10T12:24:11;17.30;99.90
3542;DHT22;1785;47.388;8.538;2023-05-10T12:26:39;17.20;99.90
3542;DHT22;1785;47.388;8.538;2023-05-10T12:29:15;17.10;99.90
3542;DHT22;1785;47.388;8.538;2023-05-10T12:31:53;17.20;99.90
3542;DHT22;1785;47.388;8.538;2023-05-10T12:34:26;17.30;99.90
3542;DHT22;1785;47.388;8.538;2023-05-10T12:36:53;17.10;99.90
3542;DHT22;1785;47.388;8.538;2023-05-10T12:39:19;17.00;99.90
3542;DHT22;1785;47.388;8.538;2023-05-10T12:41:45;16.90;99.90
3542;DHT22;1785;47.388;8.538;2023-05-10T12:44:11;17.00;99.90
3542;DHT22;1785;47.388;8.538;2023-05-10T12:46:37;17.00;99.90
3542;DHT22;1785;47.388;8.538;2023-05-10T12:49:04;17.20;99.90
3542;DHT22;1785;47.388;8.538;2023-05-10T12:51:30;17.30;99.90
3542;DHT22;1785;47.388;8.538;2023-05-10T12:53:56;17.30;99.90
3542;DHT22;1785;47.388;8.538;2023-05-10T12:56:22;17.40;99.90
3542;DHT22;1785;47.388;8.538;2023-05-10T12:58:49;17.40;99.90
3542;DHT22;1785;47.388;8.538;2023-05-10T13:01:15;17.60;99.90
3542;DHT22;1785;47.388;8.538;2023-05-10T13:03:41;17.70;99.90
3542;DHT22;1785;47.388;8.538;2023-05-10T13:06:09;17.30;99.90
3542;DHT22;1785;47.388;8.538;2023-05-10T13:08:35;17.10;99.90
3542;DHT22;1785;47.388;8.538;2023-05-10T13:11:02;17.10;99.90
3542;DHT22;1785;47.388;8.538;2023-05-10T13:13:28;17.10;99.90
3542;DHT22;1785;47.388;8.538;2023-05-10T13:15:54;17.00;99.90
3542;DHT22;1785;47.388;8.538;2023-05-10T13:18:20;17.10;99.90
3542;DHT22;1785;47.388;8.538;2023-05-10T13:20:47;17.10;99.90
3542;DHT22;1785;47.388;8.538;2023-05-10T13:23:15;17.20;99.90
3542;DHT22;1785;47.388;8.538;2023-05-10T13:25:42;17.10;99.90
3542;DHT22;1785;47.388;8.538;2023-05-10T13:28:08;16.80;99.90
3542;DHT22;1785;47.388;8.538;2023-05-10T13:30:34;16.50;99.90
3542;DHT22;1785;47.388;8.538;2023-05-10T13:33:00;16.50;99.90
3542;DHT22;1785;47.388;8.538;2023-05-10T13:35:26;16.60;99.90
3542;DHT22;1785;47.388;8.538;2023-05-10T13:37:52;16.80;99.90
3542;DHT22;1785;47.388;8.538;2023-05-10T13:40:22;16.80;99.90
3542;DHT22;1785;47.388;8.538;2023-05-10T13:42:49;16.90;99.90
3542;DHT22;1785;47.388;8.538;2023-05-10T13:45:15;16.80;99.90
3542;DHT22;1785;47.388;8.538;2023-05-10T13:47:41;16.90;99.90
3542;DHT22;1785;47.388;8.538;2023-05-10T13:50:08;16.70;99.90
3542;DHT22;1785;47.388;8.538;2023-05-10T13:52:35;16.70;99.90
3542;DHT22;1785;47.388;8.538;2023-05-10T13:55:01;16.50;99.90
3542;DHT22;1785;47.388;8.538;2023-05-10T13:57:28;16.20;99.90
3542;DHT22;1785;47.388;8.538;2023-05-10T13:59:56;16.30;99.90
3542;DHT22;1785;47.388;8.538;2023-05-10T14:02:24;16.40;99.90
3542;DHT22;1785;47.388;8.538;2023-05-10T14:04:52;16.30;99.90
3542;DHT22;1785;47.388;8.538;2023-05-10T14:07:18;16.30;99.90
3542;DHT22;1785;47.388;8.538;2023-05-10T14:09:44;16.30;99.90
3542;DHT22;1785;47.388;8.538;2023-05-10T14:12:10;16.10;99.90
3542;DHT22;1785;47.388;8.538;2023-05-10T14:14:37;16.00;99.90
3542;DHT22;1785;47.388;8.538;2023-05-10T14:17:03;16.10;99.90
3542;DHT22;1785;47.388;8.538;2023-05-10T14:19:32;16.10;99.90
3542;DHT22;1785;47.388;8.538;2023-05-10T14:21:59;16.20;99.90
3542;DHT22;1785;47.388;8.538;2023-05-10T14:24:25;16.50;99.90
3542;DHT22;1785;47.388;8.538;2023-05-10T14:26:52;17.20;99.90
3542;DHT22;1785;47.388;8.538;2023-05-10T14:29:19;17.60;99.90
3542;DHT22;1785;47.388;8.538;2023-05-10T14:31:46;17.90;99.90
3542;DHT22;1785;47.388;8.538;2023-05-10T14:34:12;18.20;99.90
3542;DHT22;1785;47.388;8.538;2023-05-10T14:36:38;18.60;99.90
3542;DHT22;1785;47.388;8.538;2023-05-10T14:39:05;18.70;99.90
3542;DHT22;1785;47.388;8.538;2023-05-10T14:41:32;18.70;99.90
3542;DHT22;1785;47.388;8.538;2023-05-10T14:43:58;18.70;99.90
3542;DHT22;1785;47.388;8.538;2023-05-10T14:46:25;19.00;99.90
3542;DHT22;1785;47.388;8.538;2023-05-10T14:48:51;19.10;99.90
3542;DHT22;1785;47.388;8.538;2023-05-10T14:51:17;19.10;99.90
3542;DHT22;1785;47.388;8.538;2023-05-10T14:53:47;19.30;99.90
3542;DHT22;1785;47.388;8.538;2023-05-10T14:56:13;19.00;99.90
3542;DHT22;1785;47.388;8.538;2023-05-10T14:58:39;18.90;99.90
3542;DHT22;1785;47.388;8.538;2023-05-10T15:01:05;18.90;99.90
3542;DHT22;1785;47.388;8.538;2023-05-10T15:03:31;19.00;99.90
3542;DHT22;1785;47.388;8.538;2023-05-10T15:05:58;19.10;99.90
3542;DHT22;1785;47.388;8.538;2023-05-10T15:08:24;19.30;99.90
3542;DHT22;1785;47.388;8.538;2023-05-10T15:10:50;19.30;99.90
3542;DHT22;1785;47.388;8.538;2023-05-10T15:13:16;19.40;99.90
3542;DHT22;1785;47.388;8.538;2023-05-10T15:15:43;19.10;99.90
3542;DHT22;1785;47.388;8.538;2023-05-10T15:18:09;18.80;99.90
3542;DHT22;1785;47.388;8.538;2023-05-10T15:20:35;18.50;99.90
3542;DHT22;1785;47.388;8.538;2023-05-10T15:23:02;18.40;99.90
3542;DHT22;1785;47.388;8.538;2023-05-10T15:25:52;18.20;99.90
3542;DHT22;1785;47.388;8.538;2023-05-10T15:28:42;17.70;99.90
3542;DHT22;1785;47.388;8.538;2023-05-10T15:31:09;17.60;99.90
3542;DHT22;1785;47.388;8.538;2023-05-10T15:33:37;17.50;99.90
3542;DHT22;1785;47.388;8.538;2023-05-10T15:36:04;17.10;99.90
3542;DHT22;1785;47.388;8.538;2023-05-10T15:38:31;16.80;99.90
3542;DHT22;1785;47.388;8.538;2023-05-10T15:40:57;16.00;99.90
3542;DHT22;1785;47.388;8.538;2023-05-10T15:43:23;15.10;99.90
3542;DHT22;1785;47.388;8.538;2023-05-10T15:45:49;14.40;99.90
3542;DHT22;1785;47.388;8.538;2023-05-10T15:48:15;14.30;99.90
3542;DHT22;1785;47.388;8.538;2023-05-10T15:50:42;14.30;99.90
3542;DHT22;1785;47.388;8.538;2023-05-10T15:53:09;14.00;99.90
3542;DHT22;1785;47.388;8.538;2023-05-10T15:55:37;14.00;99.90
3542;DHT22;1785;47.388;8.538;2023-05-10T15:58:03;14.20;99.90
3542;DHT22;1785;47.388;8.538;2023-05-10T16:00:29;14.70;99.90
3542;DHT22;1785;47.388;8.538;2023-05-10T16:02:55;15.10;99.90
3542;DHT22;1785;47.388;8.538;2023-05-10T16:05:21;15.20;99.90
3542;DHT22;1785;47.388;8.538;2023-05-10T16:07:47;15.10;99.90